Terminal Aerodrome Forecast
Issued by NWS Oklahoma City, OK

Home | Current Version | Previous Version | Text Only | Print | Product List | Glossary On
Versions: 1 2 3 4 5 6 7 8 9 10 11 12 13 14 15 16 17 18 19 20 21 22 23 24
000
FTUS44 KOUN 161139
TAFOUN
TAF
KOUN 161139Z 1612/1712 20013KT P6SM SCT250
     FM161600 19018G26KT P6SM SCT250
     FM170000 18015KT P6SM SCT050 BKN100
      TEMPO 1703/1707 5SM -RA OVC040
     FM170700 17012KT 4SM BR OVC012=

USA.gov is the U.S. government's official web portal to all federal, state and local government web resources and services.